PWSweather.com
Personal Weather Stations
Station Observations
KMAMEDFI2
Medfield, MA 02052

Medfield, MA 02052

Lat: 42.1900822, Lon: -71.3296889

Elevation: 138

Station Type: Rainwise WS MK-III

http://www.medfieldweather.com

High Low Average
Temperature 84.9°F29.4°C 56.6°F13.7°C 70.3°F21.3°C
Dew Point 66.9°F19.4°C 55.8°F13.2°C 60.6°F15.9°C
Winds 6.9 mph 11.1 kmh Calm Calm 1.0 mph SW1.6 kmh SW
Wind Gusts 15.0 mph24.1 kmh -- 2.0 mph3.2 kmh
Humidity 98% 41% 75%
Pressure 29.93 in1013.5 mb 29.79 in1008.8 mb -
Precipitation 0.01 in0.3 mm - -
Hour Temp Dew Point Humidity Winds Wind Gusts Pressure Precip Precip Rate Daily Precip Total
12:00 AM 59.1°F15.1°C 58.5°F14.7°C 98% Calm Calm -- 29.81 in1009.5 mb - 0.00 in0.0 mm 0.00 in0.0 mm
12:10 AM 59.1°F15.1°C 58.5°F14.7°C 98% Calm Calm -- 29.81 in1009.5 mb - 0.00 in0.0 mm 0.00 in0.0 mm
12:20 AM 58.9°F14.9°C 58.3°F14.6°C 98% Calm Calm -- 29.81 in1009.5 mb - 0.00 in0.0 mm 0.00 in0.0 mm
12:30 AM 58.7°F14.8°C 58.1°F14.5°C 98% Calm Calm -- 29.81 in1009.5 mb - 0.00 in0.0 mm 0.00 in0.0 mm
12:40 AM 58.6°F14.8°C 58.0°F14.4°C 98% Calm Calm -- 29.81 in1009.5 mb - 0.00 in0.0 mm 0.00 in0.0 mm
12:50 AM 58.3°F14.6°C 57.7°F14.3°C 98% Calm Calm -- 29.80 in1009.1 mb - 0.00 in0.0 mm 0.00 in0.0 mm
01:00 AM 58.2°F14.6°C 57.6°F14.2°C 98% Calm Calm -- 29.81 in1009.5 mb - 0.00 in0.0 mm 0.00 in0.0 mm
01:10 AM 58.3°F14.6°C 57.7°F14.3°C 98% Calm Calm -- 29.80 in1009.1 mb - 0.00 in0.0 mm 0.00 in0.0 mm
01:20 AM 58.2°F14.6°C 57.6°F14.2°C 98% Calm Calm 1.2 mph1.9 kmh 29.80 in1009.1 mb - 0.00 in0.0 mm 0.00 in0.0 mm
01:30 AM 58.2°F14.6°C 57.6°F14.2°C 98% Calm Calm -- 29.80 in1009.1 mb - 0.00 in0.0 mm 0.00 in0.0 mm
01:40 AM 58.2°F14.6°C 57.6°F14.2°C 98% Calm Calm 2.3 mph3.7 kmh 29.80 in1009.1 mb - 0.00 in0.0 mm 0.00 in0.0 mm
01:50 AM 58.2°F14.6°C 57.6°F14.2°C 98% Calm Calm -- 29.80 in1009.1 mb - 0.00 in0.0 mm 0.00 in0.0 mm
02:00 AM 57.8°F14.3°C 56.9°F13.8°C 97% Calm Calm -- 29.80 in1009.1 mb - 0.00 in0.0 mm 0.00 in0.0 mm
02:10 AM 57.8°F14.3°C 57.0°F13.9°C 97% Calm Calm -- 29.81 in1009.5 mb - 0.00 in0.0 mm 0.00 in0.0 mm
02:20 AM 57.7°F14.3°C 56.8°F13.8°C 97% Calm Calm -- 29.80 in1009.1 mb - 0.00 in0.0 mm 0.00 in0.0 mm
02:30 AM 57.2°F14.0°C 56.3°F13.5°C 97% Calm Calm -- 29.80 in1009.1 mb - 0.00 in0.0 mm 0.00 in0.0 mm
02:40 AM 56.8°F13.8°C 55.9°F13.3°C 97% Calm Calm -- 29.79 in1008.8 mb - 0.00 in0.0 mm 0.00 in0.0 mm
02:50 AM 56.6°F13.7°C 55.8°F13.2°C 97% Calm Calm -- 29.80 in1009.1 mb - 0.00 in0.0 mm 0.00 in0.0 mm
03:00 AM 56.7°F13.7°C 55.9°F13.3°C 97% Calm Calm -- 29.80 in1009.1 mb - 0.00 in0.0 mm 0.00 in0.0 mm
03:10 AM 56.7°F13.7°C 55.9°F13.3°C 97% Calm Calm -- 29.80 in1009.1 mb - 0.00 in0.0 mm 0.00 in0.0 mm
03:20 AM 57.2°F14.0°C 56.4°F13.6°C 97% Calm Calm -- 29.80 in1009.1 mb - 0.00 in0.0 mm 0.00 in0.0 mm
03:30 AM 56.8°F13.8°C 56.0°F13.3°C 97% Calm Calm -- 29.80 in1009.1 mb - 0.00 in0.0 mm 0.00 in0.0 mm
03:40 AM 56.9°F13.8°C 56.1°F13.4°C 97% Calm Calm -- 29.81 in1009.5 mb - 0.00 in0.0 mm 0.00 in0.0 mm
03:50 AM 57.2°F14.0°C 56.4°F13.6°C 97% Calm Calm 1.2 mph1.9 kmh 29.81 in1009.5 mb - 0.00 in0.0 mm 0.00 in0.0 mm
04:00 AM 57.3°F14.1°C 56.5°F13.6°C 97% Calm Calm -- 29.81 in1009.5 mb - 0.00 in0.0 mm 0.00 in0.0 mm
04:10 AM 56.9°F13.8°C 56.1°F13.4°C 97% Calm Calm -- 29.82 in1009.8 mb - 0.00 in0.0 mm 0.00 in0.0 mm
04:20 AM 57.2°F14.0°C 56.4°F13.6°C 97% Calm Calm -- 29.82 in1009.8 mb - 0.00 in0.0 mm 0.00 in0.0 mm
04:30 AM 57.4°F14.1°C 56.6°F13.7°C 97% 1.2 mph S1.9 kmh S -- 29.82 in1009.8 mb - 0.00 in0.0 mm 0.00 in0.0 mm
04:40 AM 57.8°F14.3°C 57.0°F13.9°C 97% Calm Calm -- 29.82 in1009.8 mb - 0.00 in0.0 mm 0.00 in0.0 mm
04:50 AM 57.7°F14.3°C 56.9°F13.8°C 97% Calm Calm -- 29.82 in1009.8 mb - 0.00 in0.0 mm 0.00 in0.0 mm
05:00 AM 57.8°F14.3°C 57.0°F13.9°C 97% Calm Calm -- 29.83 in1010.2 mb - 0.00 in0.0 mm 0.00 in0.0 mm
05:10 AM 57.8°F14.3°C 57.0°F13.9°C 97% Calm Calm -- 29.83 in1010.2 mb - 0.00 in0.0 mm 0.00 in0.0 mm
05:20 AM 57.7°F14.3°C 56.9°F13.8°C 97% Calm Calm -- 29.83 in1010.2 mb - 0.00 in0.0 mm 0.00 in0.0 mm
05:30 AM 57.5°F14.2°C 56.7°F13.7°C 97% Calm Calm -- 29.83 in1010.2 mb - 0.00 in0.0 mm 0.00 in0.0 mm
05:40 AM 57.5°F14.2°C 56.7°F13.7°C 97% Calm Calm -- 29.84 in1010.5 mb - 0.00 in0.0 mm 0.00 in0.0 mm
05:50 AM 57.4°F14.1°C 56.6°F13.7°C 97% Calm Calm -- 29.83 in1010.2 mb - 0.00 in0.0 mm 0.00 in0.0 mm
06:00 AM 57.3°F14.1°C 56.5°F13.6°C 97% Calm Calm -- 29.84 in1010.5 mb - 0.00 in0.0 mm 0.00 in0.0 mm
06:10 AM 57.6°F14.2°C 56.7°F13.7°C 97% Calm Calm -- 29.84 in1010.5 mb - 0.00 in0.0 mm 0.00 in0.0 mm
06:20 AM 57.8°F14.3°C 56.9°F13.8°C 97% Calm Calm -- 29.84 in1010.5 mb - 0.00 in0.0 mm 0.00 in0.0 mm
06:30 AM 58.0°F14.4°C 57.5°F14.2°C 98% Calm Calm -- 29.84 in1010.5 mb - 0.00 in0.0 mm 0.00 in0.0 mm
06:40 AM 58.5°F14.7°C 57.9°F14.4°C 98% Calm Calm -- 29.84 in1010.5 mb - 0.00 in0.0 mm 0.00 in0.0 mm
06:50 AM 59.1°F15.1°C 58.5°F14.7°C 98% Calm Calm -- 29.84 in1010.5 mb - 0.00 in0.0 mm 0.00 in0.0 mm
07:00 AM 59.7°F15.4°C 59.2°F15.1°C 98% Calm Calm -- 29.84 in1010.5 mb - 0.00 in0.0 mm 0.00 in0.0 mm
07:10 AM 60.6°F15.9°C 60.0°F15.6°C 98% 1.2 mph N1.9 kmh N 1.2 mph1.9 kmh 29.84 in1010.5 mb - 0.00 in0.0 mm 0.00 in0.0 mm
07:20 AM 61.3°F16.3°C 60.8°F16.0°C 98% 3.5 mph N5.6 kmh N 5.8 mph9.3 kmh 29.84 in1010.5 mb - 0.00 in0.0 mm 0.00 in0.0 mm
07:30 AM 62.7°F17.1°C 62.1°F16.7°C 98% 2.3 mph WSW3.7 kmh WSW 2.3 mph3.7 kmh 29.84 in1010.5 mb - 0.00 in0.0 mm 0.00 in0.0 mm
07:40 AM 64.2°F17.9°C 63.6°F17.6°C 98% 2.3 mph NNW3.7 kmh NNW 5.8 mph9.3 kmh 29.85 in1010.8 mb - 0.00 in0.0 mm 0.00 in0.0 mm
07:50 AM 65.4°F18.6°C 64.9°F18.3°C 98% 1.2 mph SW1.9 kmh SW 2.3 mph3.7 kmh 29.86 in1011.2 mb - 0.00 in0.0 mm 0.00 in0.0 mm
08:00 AM 66.9°F19.4°C 66.0°F18.9°C 97% 1.2 mph SW1.9 kmh SW 2.3 mph3.7 kmh 29.86 in1011.2 mb - 0.00 in0.0 mm 0.00 in0.0 mm
08:10 AM 68.4°F20.2°C 66.9°F19.4°C 95% 2.3 mph NNW3.7 kmh NNW 2.3 mph3.7 kmh 29.87 in1011.5 mb - 0.00 in0.0 mm 0.00 in0.0 mm
08:20 AM 69.7°F20.9°C 65.7°F18.7°C 87% 3.5 mph SSE5.6 kmh SSE 2.3 mph3.7 kmh 29.87 in1011.5 mb - 0.01 in0.3 mm 0.01 in0.3 mm
08:30 AM 70.2°F21.2°C 63.7°F17.6°C 80% 4.6 mph S7.4 kmh S 6.9 mph11.1 kmh 29.89 in1012.2 mb - 0.01 in0.3 mm 0.01 in0.3 mm
08:40 AM 70.8°F21.6°C 63.6°F17.6°C 78% 3.5 mph WNW5.6 kmh WNW 2.3 mph3.7 kmh 29.89 in1012.2 mb - 0.01 in0.3 mm 0.01 in0.3 mm
08:50 AM 71.5°F21.9°C 63.6°F17.6°C 76% 3.5 mph NW5.6 kmh NW 2.3 mph3.7 kmh 29.89 in1012.2 mb - 0.01 in0.3 mm 0.01 in0.3 mm
09:00 AM 72.0°F22.2°C 62.8°F17.1°C 73% 3.5 mph ESE5.6 kmh ESE 2.3 mph3.7 kmh 29.90 in1012.5 mb - 0.01 in0.3 mm 0.01 in0.3 mm
09:10 AM 72.9°F22.7°C 62.9°F17.2°C 71% 2.3 mph WSW3.7 kmh WSW 5.8 mph9.3 kmh 29.89 in1012.2 mb - 0.01 in0.3 mm 0.01 in0.3 mm
09:20 AM 73.3°F22.9°C 62.9°F17.2°C 70% 3.5 mph WSW5.6 kmh WSW 2.3 mph3.7 kmh 29.90 in1012.5 mb - 0.01 in0.3 mm 0.01 in0.3 mm
09:30 AM 73.7°F23.2°C 63.3°F17.4°C 70% 3.5 mph W5.6 kmh W 10.4 mph16.7 kmh 29.91 in1012.9 mb - 0.00 in0.0 mm 0.01 in0.3 mm
09:40 AM 74.0°F23.3°C 62.3°F16.8°C 67% 2.3 mph W3.7 kmh W 2.3 mph3.7 kmh 29.91 in1012.9 mb - 0.00 in0.0 mm 0.01 in0.3 mm
09:50 AM 74.7°F23.7°C 62.2°F16.8°C 65% 3.5 mph NE5.6 kmh NE 2.3 mph3.7 kmh 29.91 in1012.9 mb - 0.00 in0.0 mm 0.01 in0.3 mm
10:00 AM 75.1°F23.9°C 62.5°F16.9°C 65% 3.5 mph WSW5.6 kmh WSW 2.3 mph3.7 kmh 29.91 in1012.9 mb - 0.00 in0.0 mm 0.01 in0.3 mm
10:10 AM 75.4°F24.1°C 62.0°F16.7°C 63% 1.2 mph E1.9 kmh E 1.2 mph1.9 kmh 29.91 in1012.9 mb - 0.00 in0.0 mm 0.01 in0.3 mm
10:20 AM 76.2°F24.6°C 61.3°F16.3°C 60% 2.3 mph E3.7 kmh E 3.5 mph5.6 kmh 29.91 in1012.9 mb - 0.00 in0.0 mm 0.01 in0.3 mm
10:30 AM 76.7°F24.8°C 60.3°F15.7°C 57% 5.8 mph SE9.3 kmh SE 10.4 mph16.7 kmh 29.91 in1012.9 mb - 0.00 in0.0 mm 0.01 in0.3 mm
10:40 AM 76.4°F24.7°C 61.0°F16.1°C 59% 5.8 mph ESE9.3 kmh ESE 15.0 mph24.1 kmh 29.92 in1013.2 mb - 0.00 in0.0 mm 0.01 in0.3 mm
10:50 AM 75.9°F24.4°C 61.5°F16.4°C 61% 1.2 mph SE1.9 kmh SE 2.3 mph3.7 kmh 29.92 in1013.2 mb - 0.00 in0.0 mm 0.01 in0.3 mm
11:00 AM 76.7°F24.8°C 62.2°F16.8°C 61% 4.6 mph ESE7.4 kmh ESE 5.8 mph9.3 kmh 29.91 in1012.9 mb - 0.00 in0.0 mm 0.01 in0.3 mm
11:10 AM 77.1°F25.1°C 61.2°F16.2°C 58% 6.9 mph E11.1 kmh E 8.1 mph13.0 kmh 29.92 in1013.2 mb - 0.00 in0.0 mm 0.01 in0.3 mm
11:20 AM 76.9°F24.9°C 59.5°F15.3°C 55% 3.5 mph NE5.6 kmh NE 5.8 mph9.3 kmh 29.91 in1012.9 mb - 0.00 in0.0 mm 0.01 in0.3 mm
11:30 AM 77.6°F25.3°C 61.2°F16.2°C 57% 4.6 mph WNW7.4 kmh WNW 8.1 mph13.0 kmh 29.92 in1013.2 mb - 0.00 in0.0 mm 0.01 in0.3 mm
11:40 AM 78.6°F25.9°C 62.1°F16.7°C 57% 3.5 mph E5.6 kmh E 9.2 mph14.8 kmh 29.91 in1012.9 mb - 0.00 in0.0 mm 0.01 in0.3 mm
11:50 AM 78.0°F25.6°C 60.0°F15.6°C 54% 3.5 mph SSW5.6 kmh SSW 2.3 mph3.7 kmh 29.91 in1012.9 mb - 0.00 in0.0 mm 0.01 in0.3 mm
12:00 PM 78.4°F25.8°C 60.9°F16.1°C 55% 5.8 mph SE9.3 kmh SE 6.9 mph11.1 kmh 29.92 in1013.2 mb - 0.00 in0.0 mm 0.01 in0.3 mm
12:10 PM 79.1°F26.2°C 63.1°F17.3°C 58% 2.3 mph NNW3.7 kmh NNW 6.9 mph11.1 kmh 29.92 in1013.2 mb - 0.00 in0.0 mm 0.01 in0.3 mm
12:20 PM 78.8°F26.0°C 61.3°F16.3°C 55% 4.6 mph E7.4 kmh E 8.1 mph13.0 kmh 29.93 in1013.5 mb - 0.00 in0.0 mm 0.01 in0.3 mm
12:30 PM 78.8°F26.0°C 61.8°F16.6°C 56% 1.2 mph SE1.9 kmh SE 2.3 mph3.7 kmh 29.93 in1013.5 mb - 0.00 in0.0 mm 0.01 in0.3 mm
12:40 PM 80.0°F26.7°C 62.4°F16.9°C 55% 1.2 mph WSW1.9 kmh WSW 2.3 mph3.7 kmh 29.93 in1013.5 mb - 0.00 in0.0 mm 0.01 in0.3 mm
12:50 PM 80.4°F26.9°C 62.7°F17.1°C 55% 2.3 mph N3.7 kmh N 5.8 mph9.3 kmh 29.93 in1013.5 mb - 0.00 in0.0 mm 0.01 in0.3 mm
01:00 PM 79.2°F26.2°C 61.2°F16.2°C 54% 2.3 mph SE3.7 kmh SE 2.3 mph3.7 kmh 29.92 in1013.2 mb - 0.00 in0.0 mm 0.01 in0.3 mm
01:10 PM 79.9°F26.6°C 60.7°F15.9°C 52% 1.2 mph WNW1.9 kmh WNW 6.9 mph11.1 kmh 29.92 in1013.2 mb - 0.00 in0.0 mm 0.01 in0.3 mm
01:20 PM 79.2°F26.2°C 60.6°F15.9°C 53% 3.5 mph W5.6 kmh W 5.8 mph9.3 kmh 29.91 in1012.9 mb - 0.00 in0.0 mm 0.01 in0.3 mm
01:30 PM 79.2°F26.2°C 60.1°F15.6°C 52% 2.3 mph ESE3.7 kmh ESE 2.3 mph3.7 kmh 29.91 in1012.9 mb - 0.00 in0.0 mm 0.01 in0.3 mm
01:40 PM 80.8°F27.1°C 60.4°F15.8°C 50% 3.5 mph SW5.6 kmh SW 8.1 mph13.0 kmh 29.91 in1012.9 mb - 0.00 in0.0 mm 0.01 in0.3 mm
01:50 PM 81.1°F27.3°C 60.7°F15.9°C 50% 3.5 mph WSW5.6 kmh WSW 2.3 mph3.7 kmh 29.89 in1012.2 mb - 0.00 in0.0 mm 0.01 in0.3 mm
02:00 PM 81.9°F27.7°C 59.0°F15.0°C 46% 2.3 mph E3.7 kmh E 2.3 mph3.7 kmh 29.89 in1012.2 mb - 0.00 in0.0 mm 0.01 in0.3 mm
02:10 PM 82.2°F27.9°C 63.9°F17.7°C 54% 3.5 mph SW5.6 kmh SW 2.3 mph3.7 kmh 29.89 in1012.2 mb - 0.00 in0.0 mm 0.01 in0.3 mm
02:20 PM 81.8°F27.7°C 59.6°F15.3°C 47% 3.5 mph SSE5.6 kmh SSE 2.3 mph3.7 kmh 29.90 in1012.5 mb - 0.00 in0.0 mm 0.01 in0.3 mm
02:30 PM 82.3°F27.9°C 59.4°F15.2°C 46% 6.9 mph SW11.1 kmh SW 9.2 mph14.8 kmh 29.90 in1012.5 mb - 0.00 in0.0 mm 0.01 in0.3 mm
02:40 PM 82.3°F27.9°C 60.1°F15.6°C 47% 4.6 mph WSW7.4 kmh WSW 9.2 mph14.8 kmh 29.90 in1012.5 mb - 0.00 in0.0 mm 0.01 in0.3 mm
02:50 PM 82.4°F28.0°C 61.3°F16.3°C 49% 2.3 mph NW3.7 kmh NW 3.5 mph5.6 kmh 29.90 in1012.5 mb - 0.00 in0.0 mm 0.01 in0.3 mm
03:00 PM 82.4°F28.0°C 60.7°F15.9°C 48% 1.2 mph NNW1.9 kmh NNW 2.3 mph3.7 kmh 29.90 in1012.5 mb - 0.00 in0.0 mm 0.01 in0.3 mm
03:10 PM 81.8°F27.7°C 60.8°F16.0°C 49% 2.3 mph ENE3.7 kmh ENE 2.3 mph3.7 kmh 29.91 in1012.9 mb - 0.00 in0.0 mm 0.01 in0.3 mm
03:20 PM 82.7°F28.2°C 59.2°F15.1°C 45% 1.2 mph WSW1.9 kmh WSW 2.3 mph3.7 kmh 29.91 in1012.9 mb - 0.00 in0.0 mm 0.01 in0.3 mm
03:30 PM 83.7°F28.7°C 61.9°F16.6°C 48% 3.5 mph WSW5.6 kmh WSW 6.9 mph11.1 kmh 29.91 in1012.9 mb - 0.00 in0.0 mm 0.01 in0.3 mm
03:40 PM 84.2°F29.0°C 61.2°F16.2°C 46% 4.6 mph SW7.4 kmh SW 8.1 mph13.0 kmh 29.91 in1012.9 mb - 0.00 in0.0 mm 0.01 in0.3 mm
03:50 PM 83.1°F28.4°C 59.5°F15.3°C 45% Calm Calm 1.2 mph1.9 kmh 29.91 in1012.9 mb - 0.00 in0.0 mm 0.01 in0.3 mm
04:00 PM 83.8°F28.8°C 59.5°F15.3°C 44% 3.5 mph E5.6 kmh E 8.1 mph13.0 kmh 29.91 in1012.9 mb - 0.00 in0.0 mm 0.01 in0.3 mm
04:10 PM 83.2°F28.4°C 62.0°F16.7°C 49% 1.2 mph WNW1.9 kmh WNW 2.3 mph3.7 kmh 29.90 in1012.5 mb - 0.00 in0.0 mm 0.01 in0.3 mm
04:20 PM 83.3°F28.5°C 60.3°F15.7°C 46% 3.5 mph SW5.6 kmh SW 6.9 mph11.1 kmh 29.89 in1012.2 mb - 0.00 in0.0 mm 0.01 in0.3 mm
04:30 PM 84.5°F29.2°C 58.2°F14.6°C 41% 3.5 mph SSW5.6 kmh SSW 3.5 mph5.6 kmh 29.89 in1012.2 mb - 0.00 in0.0 mm 0.01 in0.3 mm
04:40 PM 84.3°F29.1°C 58.7°F14.8°C 42% 2.3 mph N3.7 kmh N 5.8 mph9.3 kmh 29.89 in1012.2 mb - 0.00 in0.0 mm 0.01 in0.3 mm
04:50 PM 84.7°F29.3°C 59.1°F15.1°C 42% 1.2 mph E1.9 kmh E 5.8 mph9.3 kmh 29.89 in1012.2 mb - 0.00 in0.0 mm 0.01 in0.3 mm
05:00 PM 84.9°F29.4°C 58.6°F14.8°C 41% 2.3 mph NE3.7 kmh NE 2.3 mph3.7 kmh 29.90 in1012.5 mb - 0.00 in0.0 mm 0.01 in0.3 mm
05:10 PM 84.8°F29.3°C 61.1°F16.2°C 45% Calm Calm 1.2 mph1.9 kmh 29.89 in1012.2 mb - 0.00 in0.0 mm 0.01 in0.3 mm
05:20 PM 83.1°F28.4°C 62.0°F16.7°C 49% 2.3 mph NW3.7 kmh NW 2.3 mph3.7 kmh 29.89 in1012.2 mb - 0.00 in0.0 mm 0.01 in0.3 mm
05:30 PM 82.4°F28.0°C 60.2°F15.7°C 47% Calm Calm 2.3 mph3.7 kmh 29.89 in1012.2 mb - 0.00 in0.0 mm 0.01 in0.3 mm
05:40 PM 81.9°F27.7°C 59.1°F15.1°C 46% 3.5 mph SSW5.6 kmh SSW 2.3 mph3.7 kmh 29.88 in1011.9 mb - 0.00 in0.0 mm 0.01 in0.3 mm
05:50 PM 81.5°F27.5°C 60.5°F15.8°C 49% 3.5 mph SW5.6 kmh SW 2.3 mph3.7 kmh 29.88 in1011.9 mb - 0.00 in0.0 mm 0.01 in0.3 mm
06:00 PM 81.4°F27.4°C 59.9°F15.5°C 48% 2.3 mph WSW3.7 kmh WSW 3.5 mph5.6 kmh 29.87 in1011.5 mb - 0.00 in0.0 mm 0.01 in0.3 mm
06:10 PM 81.2°F27.3°C 58.5°F14.7°C 46% 2.3 mph W3.7 kmh W 2.3 mph3.7 kmh 29.87 in1011.5 mb - 0.00 in0.0 mm 0.01 in0.3 mm
06:20 PM 81.1°F27.3°C 60.7°F15.9°C 50% 1.2 mph W1.9 kmh W 2.3 mph3.7 kmh 29.87 in1011.5 mb - 0.00 in0.0 mm 0.01 in0.3 mm
06:30 PM 80.6°F27.0°C 60.2°F15.7°C 50% 3.5 mph WSW5.6 kmh WSW 6.9 mph11.1 kmh 29.87 in1011.5 mb - 0.00 in0.0 mm 0.01 in0.3 mm
06:40 PM 80.3°F26.8°C 59.9°F15.5°C 50% 2.3 mph N3.7 kmh N 3.5 mph5.6 kmh 29.87 in1011.5 mb - 0.00 in0.0 mm 0.01 in0.3 mm
06:50 PM 80.0°F26.7°C 59.7°F15.4°C 50% Calm Calm 2.3 mph3.7 kmh 29.87 in1011.5 mb - 0.00 in0.0 mm 0.01 in0.3 mm
07:00 PM 79.5°F26.4°C 60.4°F15.8°C 52% 1.2 mph SW1.9 kmh SW 1.2 mph1.9 kmh 29.87 in1011.5 mb - 0.00 in0.0 mm 0.01 in0.3 mm
07:10 PM 78.8°F26.0°C 62.3°F16.8°C 57% Calm Calm -- 29.86 in1011.2 mb - 0.00 in0.0 mm 0.01 in0.3 mm
07:20 PM 77.7°F25.4°C 61.3°F16.3°C 57% 1.2 mph SW1.9 kmh SW -- 29.86 in1011.2 mb - 0.00 in0.0 mm 0.01 in0.3 mm
07:30 PM 76.8°F24.9°C 61.9°F16.6°C 60% 1.2 mph SW1.9 kmh SW 1.2 mph1.9 kmh 29.86 in1011.2 mb - 0.00 in0.0 mm 0.01 in0.3 mm
07:40 PM 75.8°F24.3°C 61.4°F16.3°C 61% Calm Calm -- 29.86 in1011.2 mb - 0.00 in0.0 mm 0.01 in0.3 mm
07:50 PM 74.8°F23.8°C 62.3°F16.8°C 65% Calm Calm -- 29.86 in1011.2 mb - 0.00 in0.0 mm 0.01 in0.3 mm
08:00 PM 73.9°F23.3°C 62.6°F17.0°C 68% Calm Calm -- 29.86 in1011.2 mb - 0.00 in0.0 mm 0.01 in0.3 mm
08:10 PM 73.0°F22.8°C 62.2°F16.8°C 69% Calm Calm -- 29.85 in1010.8 mb - 0.00 in0.0 mm 0.01 in0.3 mm
08:20 PM 72.1°F22.3°C 62.9°F17.2°C 73% Calm Calm -- 29.86 in1011.2 mb - 0.00 in0.0 mm 0.01 in0.3 mm
08:30 PM 71.2°F21.8°C 62.9°F17.2°C 75% Calm Calm -- 29.85 in1010.8 mb - 0.00 in0.0 mm 0.01 in0.3 mm
08:40 PM 70.5°F21.4°C 62.9°F17.2°C 77% Calm Calm -- 29.85 in1010.8 mb - 0.00 in0.0 mm 0.01 in0.3 mm
08:50 PM 69.6°F20.9°C 62.8°F17.1°C 79% Calm Calm -- 29.86 in1011.2 mb - 0.00 in0.0 mm 0.01 in0.3 mm
09:00 PM 68.8°F20.4°C 63.0°F17.2°C 82% Calm Calm -- 29.86 in1011.2 mb - 0.00 in0.0 mm 0.01 in0.3 mm
09:10 PM 68.0°F20.0°C 62.9°F17.2°C 84% Calm Calm -- 29.86 in1011.2 mb - 0.00 in0.0 mm 0.01 in0.3 mm
09:20 PM 67.6°F19.8°C 63.2°F17.3°C 86% Calm Calm -- 29.86 in1011.2 mb - 0.00 in0.0 mm 0.01 in0.3 mm
09:30 PM 67.2°F19.6°C 63.9°F17.7°C 89% Calm Calm -- 29.86 in1011.2 mb - 0.00 in0.0 mm 0.01 in0.3 mm
09:40 PM 67.0°F19.4°C 63.6°F17.6°C 89% Calm Calm -- 29.86 in1011.2 mb - 0.00 in0.0 mm 0.01 in0.3 mm
09:50 PM 66.6°F19.2°C 63.9°F17.7°C 91% Calm Calm -- 29.85 in1010.8 mb - 0.00 in0.0 mm 0.01 in0.3 mm
10:00 PM 66.3°F19.1°C 63.9°F17.7°C 92% Calm Calm -- 29.85 in1010.8 mb - 0.00 in0.0 mm 0.01 in0.3 mm
10:10 PM 65.9°F18.8°C 63.8°F17.7°C 93% Calm Calm -- 29.85 in1010.8 mb - 0.00 in0.0 mm 0.01 in0.3 mm
10:20 PM 65.7°F18.7°C 63.9°F17.7°C 94% Calm Calm -- 29.85 in1010.8 mb - 0.00 in0.0 mm 0.01 in0.3 mm
10:30 PM 66.0°F18.9°C 64.6°F18.1°C 95% Calm Calm -- 29.85 in1010.8 mb - 0.00 in0.0 mm 0.01 in0.3 mm
10:40 PM 65.9°F18.8°C 64.1°F17.8°C 94% Calm Calm -- 29.85 in1010.8 mb - 0.00 in0.0 mm 0.01 in0.3 mm
10:50 PM 65.4°F18.6°C 63.9°F17.7°C 95% Calm Calm -- 29.85 in1010.8 mb - 0.00 in0.0 mm 0.01 in0.3 mm
11:00 PM 65.1°F18.4°C 63.6°F17.6°C 95% Calm Calm -- 29.85 in1010.8 mb - 0.00 in0.0 mm 0.01 in0.3 mm
11:10 PM 64.7°F18.2°C 63.8°F17.7°C 97% Calm Calm -- 29.84 in1010.5 mb - 0.00 in0.0 mm 0.01 in0.3 mm
11:20 PM 64.4°F18.0°C 63.8°F17.7°C 98% Calm Calm -- 29.84 in1010.5 mb - 0.00 in0.0 mm 0.01 in0.3 mm
11:30 PM 64.3°F17.9°C 63.7°F17.6°C 98% Calm Calm -- 29.84 in1010.5 mb - 0.00 in0.0 mm 0.01 in0.3 mm
11:40 PM 64.3°F17.9°C 63.7°F17.6°C 98% Calm Calm -- 29.84 in1010.5 mb - 0.00 in0.0 mm 0.01 in0.3 mm
11:50 PM 64.1°F17.8°C 63.6°F17.6°C 98% Calm Calm -- 29.84 in1010.5 mb - 0.00 in0.0 mm 0.01 in0.3 mm